Time;durP1;ratioP1;P1;durP2;ratioP2;P2;SDS_P1;SDS_P2;PMS_P1;PMS_P2;Temp;Humidity;BMP_temperature;BMP_pressure;BME280_temperature;BME280_humidity;BME280_pressure;Samples;Min_cycle;Max_cycle;Signal;HPM_P1;HPM_P2
2023/06/07 00:01:06;;;;;;;10.37;5.30;;;;;;;15.77;76.91;101827.69;4996798;28;20157;-89
2023/06/07 00:03:33;;;;;;;11.90;5.60;;;;;;;15.71;77.22;101820.38;4996418;28;20053;-88
2023/06/07 00:06:00;;;;;;;18.15;5.60;;;;;;;15.75;77.27;101829.81;4996918;28;20073;-88
2023/06/07 00:08:30;;;;;;;14.82;5.88;;;;;;;15.69;77.81;101829.88;4995388;28;20042;-89
2023/06/07 00:10:57;;;;;;;14.27;5.80;;;;;;;15.58;77.83;101829.56;4996298;28;20117;-88
2023/06/07 00:13:23;;;;;;;9.90;5.20;;;;;;;15.57;77.97;101832.50;4995262;28;20052;-88
2023/06/07 00:15:48;;;;;;;15.93;5.63;;;;;;;15.60;78.00;101841.13;4995257;28;20027;-89
2023/06/07 00:18:14;;;;;;;12.68;5.90;;;;;;;15.52;78.13;101830.47;4979627;28;20034;-88
2023/06/07 00:20:40;;;;;;;16.20;6.10;;;;;;;15.55;78.39;101837.38;4995420;28;20085;-88
2023/06/07 00:23:06;;;;;;;13.60;5.82;;;;;;;15.48;78.49;101825.66;4995317;28;20030;-88
2023/06/07 00:25:31;;;;;;;10.77;5.50;;;;;;;15.42;78.32;101827.38;4996654;28;20036;-88
2023/06/07 00:27:57;;;;;;;16.65;6.32;;;;;;;15.46;78.72;101841.44;4995243;28;20042;-88
2023/06/07 00:30:22;;;;;;;10.20;5.47;;;;;;;15.42;78.38;101835.59;4995391;28;20125;-88
2023/06/07 00:32:48;;;;;;;12.83;5.70;;;;;;;15.43;78.86;101834.53;4994809;28;20038;-88
2023/06/07 00:35:13;;;;;;;12.40;5.50;;;;;;;15.40;78.57;101833.09;4994910;28;20041;-88
2023/06/07 00:37:40;;;;;;;8.05;5.22;;;;;;;15.41;78.48;101842.97;4996388;28;20455;-89
2023/06/07 00:40:06;;;;;;;10.68;5.72;;;;;;;15.43;78.12;101837.28;4995113;28;20038;-89
2023/06/07 00:42:32;;;;;;;15.55;6.03;;;;;;;15.40;78.89;101841.28;4978705;28;20031;-89
2023/06/07 00:44:58;;;;;;;11.53;6.20;;;;;;;15.36;78.46;101831.84;4978957;28;20052;-88
2023/06/07 00:47:25;;;;;;;10.55;5.75;;;;;;;15.35;78.39;101824.69;4995160;28;20110;-88
2023/06/07 00:49:50;;;;;;;11.47;5.77;;;;;;;15.35;78.43;101830.16;4995622;28;20096;-88
2023/06/07 00:52:16;;;;;;;14.05;6.00;;;;;;;15.38;78.74;101831.63;4978561;28;20034;-88
2023/06/07 00:54:42;;;;;;;13.05;6.20;;;;;;;15.39;78.45;101825.94;4995085;28;20499;-88
2023/06/07 00:57:07;;;;;;;10.77;6.20;;;;;;;15.36;78.41;101828.28;4977741;28;20153;-87
2023/06/07 00:59:33;;;;;;;9.47;5.63;;;;;;;15.34;78.19;101823.03;4978522;28;20026;-88
2023/06/07 01:02:01;;;;;;;14.93;5.50;;;;;;;15.30;78.03;101821.81;4994401;28;20061;-88
2023/06/07 01:04:29;;;;;;;14.10;6.03;;;;;;;15.25;78.21;101825.22;4963116;28;20030;-88
2023/06/07 01:06:54;;;;;;;13.65;5.53;;;;;;;15.25;78.09;101821.63;4995400;28;20038;-88
2023/06/07 01:09:21;;;;;;;11.73;6.10;;;;;;;15.23;78.18;101827.31;4978441;28;20041;-88
2023/06/07 01:11:49;;;;;;;9.98;5.53;;;;;;;15.16;78.40;101821.09;4962249;28;20030;-88
2023/06/07 01:14:16;;;;;;;11.40;5.47;;;;;;;15.15;78.67;101827.63;4994837;28;20541;-87
2023/06/07 01:16:48;;;;;;;12.30;5.70;;;;;;;15.17;78.46;101825.47;4994422;28;20030;-87
2023/06/07 01:19:22;;;;;;;12.70;5.85;;;;;;;15.13;78.39;101832.44;4994460;28;20030;-88
2023/06/07 01:21:51;;;;;;;14.32;5.65;;;;;;;15.15;78.48;101835.00;4994147;28;20026;-88
2023/06/07 01:24:18;;;;;;;12.35;5.95;;;;;;;15.11;78.42;101820.91;4995291;28;20038;-88
2023/06/07 01:26:46;;;;;;;15.27;5.67;;;;;;;15.08;78.67;101822.19;4994182;28;20022;-88
2023/06/07 01:29:12;;;;;;;10.43;5.60;;;;;;;15.07;78.86;101819.69;4994119;28;20056;-87
2023/06/07 01:31:40;;;;;;;13.10;5.40;;;;;;;15.09;78.61;101820.31;4994217;28;20453;-88
2023/06/07 01:34:07;;;;;;;10.30;5.55;;;;;;;15.06;78.69;101807.91;4993742;28;20120;-88
2023/06/07 01:36:33;;;;;;;12.97;5.90;;;;;;;15.05;79.22;101811.69;4977788;28;20030;-88
2023/06/07 01:39:02;;;;;;;13.27;5.95;;;;;;;15.01;79.15;101818.66;4994175;28;20118;-88
2023/06/07 01:41:29;;;;;;;15.52;6.22;;;;;;;15.00;79.08;101817.00;4994224;28;20477;-88
2023/06/07 01:43:57;;;;;;;13.13;5.60;;;;;;;14.96;79.02;101815.78;4994897;28;20030;-88
2023/06/07 01:46:24;;;;;;;10.55;5.90;;;;;;;14.94;78.99;101822.50;4993928;28;20532;-88
2023/06/07 01:48:50;;;;;;;13.23;6.00;;;;;;;14.91;78.88;101810.97;4993599;28;20066;-88
2023/06/07 01:51:15;;;;;;;11.45;5.57;;;;;;;14.88;79.04;101805.94;4993547;28;20035;-88
2023/06/07 01:53:41;;;;;;;11.70;5.33;;;;;;;14.85;79.28;101809.13;4993947;28;20486;-87
2023/06/07 01:56:51;;;;;;;12.83;5.80;;;;;;;14.87;78.23;101803.44;4977313;28;20041;-87
2023/06/07 01:59:35;;;;;;;16.00;6.17;;;;;;;14.82;79.24;101811.44;4986659;28;20273;-88
2023/06/07 02:02:12;;;;;;;14.15;5.72;;;;;;;14.77;79.52;101801.19;4993012;28;20085;-87
2023/06/07 02:04:50;;;;;;;10.98;6.28;;;;;;;14.78;79.31;101805.59;4994688;28;20053;-87
2023/06/07 02:07:23;;;;;;;11.98;5.90;;;;;;;14.73;79.55;101808.13;4993362;28;20038;-88
2023/06/07 02:09:50;;;;;;;14.80;6.57;;;;;;;14.67;80.41;101801.66;4994318;28;20034;-88
2023/06/07 02:12:17;;;;;;;14.17;6.27;;;;;;;14.68;80.26;101805.25;4993201;28;20038;-88
2023/06/07 02:14:43;;;;;;;13.10;5.95;;;;;;;14.64;80.61;101804.81;4993256;28;20038;-88
2023/06/07 02:17:11;;;;;;;9.27;5.72;;;;;;;14.61;80.54;101807.13;4977223;28;20483;-87
2023/06/07 02:19:37;;;;;;;15.82;6.57;;;;;;;14.53;80.56;101811.78;4994247;28;20088;-88
2023/06/07 02:22:03;;;;;;;14.37;6.33;;;;;;;14.57;80.67;101817.66;4993158;28;20030;-87
2023/06/07 02:24:29;;;;;;;16.35;6.75;;;;;;;14.54;80.88;101813.47;4993534;28;20109;-87
2023/06/07 02:26:55;;;;;;;14.70;6.57;;;;;;;14.52;81.33;101801.91;4977057;28;20030;-88
2023/06/07 02:29:21;;;;;;;14.07;6.27;;;;;;;14.53;81.01;101810.97;4993046;28;20038;-88
2023/06/07 02:31:50;;;;;;;14.43;6.35;;;;;;;14.48;81.33;101818.97;4977067;28;20030;-89
2023/06/07 02:34:16;;;;;;;14.48;6.20;;;;;;;14.36;81.74;101813.34;4993020;28;20039;-88
2023/06/07 02:36:41;;;;;;;11.70;6.33;;;;;;;14.38;81.75;101814.00;4992777;28;20085;-87
2023/06/07 02:39:08;;;;;;;14.40;6.20;;;;;;;14.37;81.41;101818.59;4993395;28;20034;-88
2023/06/07 02:41:34;;;;;;;13.10;6.23;;;;;;;14.36;81.87;101818.81;4994329;28;20035;-87
2023/06/07 02:43:59;;;;;;;12.25;6.20;;;;;;;14.29;82.06;101812.53;4993468;28;20041;-88
2023/06/07 02:46:25;;;;;;;12.95;6.80;;;;;;;14.35;81.84;101811.66;4993014;28;20125;-88
2023/06/07 02:48:51;;;;;;;11.73;5.67;;;;;;;14.31;82.14;101813.19;4960663;28;20406;-88
2023/06/07 02:51:16;;;;;;;13.63;6.23;;;;;;;14.32;82.27;101812.97;4976404;28;20050;-88
2023/06/07 02:53:44;;;;;;;13.90;6.38;;;;;;;14.30;82.31;101808.75;4993935;28;20030;-89
2023/06/07 02:56:10;;;;;;;14.50;7.15;;;;;;;14.31;82.45;101803.09;4977115;28;20391;-88
2023/06/07 02:58:36;;;;;;;11.80;6.30;;;;;;;14.31;81.74;101814.00;4993077;28;20125;-88
2023/06/07 03:01:02;;;;;;;13.57;7.10;;;;;;;14.23;81.80;101802.50;4960514;28;20137;-88
2023/06/07 03:03:27;;;;;;;14.37;6.60;;;;;;;14.27;82.03;101815.50;4993470;28;20076;-88
2023/06/07 03:05:52;;;;;;;15.57;6.33;;;;;;;14.21;82.29;101803.53;4960390;28;20081;-88
2023/06/07 03:08:18;;;;;;;13.77;6.90;;;;;;;14.21;82.61;101814.47;4976724;28;20038;-88
2023/06/07 03:10:44;;;;;;;12.60;6.67;;;;;;;14.20;82.67;101817.41;4993868;28;20057;-89
2023/06/07 03:13:10;;;;;;;12.00;7.22;;;;;;;14.22;82.55;101812.59;4976630;28;20565;-87
2023/06/07 03:15:38;;;;;;;19.80;6.83;;;;;;;14.17;82.85;101815.97;4976319;28;20130;-88
2023/06/07 03:18:04;;;;;;;16.20;6.55;;;;;;;14.11;82.52;101825.00;4977002;28;20475;-88
2023/06/07 03:20:33;;;;;;;15.70;6.97;;;;;;;14.09;82.80;101808.00;4977539;28;20386;-88
2023/06/07 03:22:58;;;;;;;13.30;6.28;;;;;;;14.08;83.10;101816.41;4996912;28;20042;-88
2023/06/07 03:25:23;;;;;;;11.87;6.43;;;;;;;14.06;83.04;101813.91;4996774;28;20046;-88
2023/06/07 03:27:49;;;;;;;12.00;6.70;;;;;;;14.07;83.03;101817.44;4980346;28;20165;-88
2023/06/07 03:30:14;;;;;;;14.70;6.60;;;;;;;14.10;83.51;101820.59;4996574;28;20367;-88
2023/06/07 03:32:40;;;;;;;18.17;6.63;;;;;;;14.14;84.09;101824.59;4979646;28;20108;-88
2023/06/07 03:35:07;;;;;;;16.40;7.67;;;;;;;14.08;83.50;101827.31;4997279;28;20475;-88
2023/06/07 03:37:32;;;;;;;11.93;6.93;;;;;;;14.08;84.32;101819.13;4996375;28;20030;-88
2023/06/07 03:39:57;;;;;;;14.67;6.67;;;;;;;14.08;83.56;101825.41;4963942;28;20026;-87
2023/06/07 03:42:23;;;;;;;10.87;6.80;;;;;;;14.06;83.48;101823.97;4979922;28;20182;-87
2023/06/07 03:44:48;;;;;;;12.07;6.35;;;;;;;14.06;83.38;101822.09;4980004;28;20056;-88
2023/06/07 03:47:13;;;;;;;12.50;6.70;;;;;;;14.05;83.28;101814.94;4979562;28;20509;-88
2023/06/07 03:49:39;;;;;;;13.13;6.83;;;;;;;14.06;83.03;101816.63;4979454;28;20030;-88
2023/06/07 03:52:05;;;;;;;16.00;6.17;;;;;;;14.07;83.03;101831.97;4996152;28;20033;-88
2023/06/07 03:54:30;;;;;;;12.77;6.40;;;;;;;14.06;83.08;101823.97;4979837;28;20129;-88
2023/06/07 03:56:57;;;;;;;11.33;6.50;;;;;;;14.09;83.34;101829.84;4963779;28;20490;-88
2023/06/07 03:59:23;;;;;;;12.77;6.47;;;;;;;14.08;83.54;101821.88;4995854;28;20542;-88
2023/06/07 04:01:49;;;;;;;13.45;6.47;;;;;;;14.13;83.04;101825.63;4995495;28;20094;-87
2023/06/07 04:04:15;;;;;;;11.93;6.33;;;;;;;14.10;82.99;101822.47;4978415;28;20082;-88
2023/06/07 04:06:40;;;;;;;14.60;6.37;;;;;;;14.17;82.99;101829.63;4973697;28;20049;-87
2023/06/07 04:09:07;;;;;;;12.83;5.93;;;;;;;14.17;83.01;101829.63;4999913;28;20096;-87
2023/06/07 04:11:32;;;;;;;11.85;6.00;;;;;;;14.13;82.38;101822.03;5015276;28;20389;-88
2023/06/07 04:13:58;;;;;;;16.70;5.83;;;;;;;14.12;82.61;101829.41;4999283;28;20030;-87
2023/06/07 04:16:23;;;;;;;11.15;5.82;;;;;;;14.13;82.66;101835.69;4998874;28;20387;-87
2023/06/07 04:18:49;;;;;;;13.70;5.83;;;;;;;14.11;82.85;101830.44;5014895;28;20038;-87
2023/06/07 04:21:14;;;;;;;14.23;6.17;;;;;;;14.13;82.68;101833.81;5016464;28;20535;-87
2023/06/07 04:23:41;;;;;;;18.20;6.20;;;;;;;14.12;82.65;101832.13;4998968;28;20046;-87
2023/06/07 04:26:08;;;;;;;11.75;6.20;;;;;;;14.09;83.38;101821.66;5016352;28;20030;-86
2023/06/07 04:28:34;;;;;;;14.80;6.32;;;;;;;14.20;82.33;101826.44;5014961;28;20041;-87
2023/06/07 04:30:59;;;;;;;13.18;5.45;;;;;;;14.24;82.42;101826.84;5014625;28;20482;-87
2023/06/07 04:33:27;;;;;;;15.50;6.47;;;;;;;14.27;82.18;101823.69;4997073;28;20037;-88
2023/06/07 04:35:57;;;;;;;13.82;6.32;;;;;;;14.31;81.70;101815.91;5015230;28;20033;-87
2023/06/07 04:38:23;;;;;;;14.88;6.32;;;;;;;14.37;81.51;101826.78;4999095;28;20129;-87
2023/06/07 04:40:49;;;;;;;10.00;5.70;;;;;;;14.44;81.03;101825.91;5014650;28;20481;-88
2023/06/07 04:43:18;;;;;;;13.52;5.72;;;;;;;14.48;81.11;101828.00;5014449;28;20033;-88
2023/06/07 04:45:46;;;;;;;15.57;5.78;;;;;;;14.59;80.38;101826.47;5015919;28;20054;-88
2023/06/07 04:48:12;;;;;;;15.38;6.30;;;;;;;14.66;80.70;101829.19;5014612;28;20037;-88
2023/06/07 04:50:44;;;;;;;20.27;6.00;;;;;;;14.67;80.41;101828.97;5015617;28;20397;-88
2023/06/07 04:53:10;;;;;;;16.40;6.20;;;;;;;14.68;80.19;101832.56;4999418;28;20061;-88
2023/06/07 04:55:38;;;;;;;14.15;6.22;;;;;;;14.71;80.15;101829.38;5014380;28;20132;-88
2023/06/07 04:58:05;;;;;;;13.70;5.38;;;;;;;14.77;79.21;101828.50;5014161;28;20033;-88
2023/06/07 05:00:32;;;;;;;14.07;6.13;;;;;;;14.77;79.53;101833.13;5014109;28;20397;-88
2023/06/07 05:03:06;;;;;;;13.93;5.60;;;;;;;14.73;78.91;101830.00;5013656;28;20121;-88
2023/06/07 05:05:32;;;;;;;13.73;5.80;;;;;;;14.66;78.90;101837.38;5014318;28;20500;-87
2023/06/07 05:07:58;;;;;;;16.42;6.22;;;;;;;14.69;78.89;101840.53;5014536;28;20034;-88
2023/06/07 05:10:24;;;;;;;15.25;5.85;;;;;;;14.62;79.32;101834.25;4981818;28;20033;-88
2023/06/07 05:12:49;;;;;;;13.83;6.33;;;;;;;14.64;79.01;101842.25;5015347;28;20030;-88
2023/06/07 05:15:15;;;;;;;18.47;6.13;;;;;;;14.71;78.41;101838.41;5015309;28;20488;-88
2023/06/07 05:17:40;;;;;;;15.60;5.47;;;;;;;14.71;78.53;101843.03;5014577;28;20285;-87
2023/06/07 05:20:10;;;;;;;14.33;5.70;;;;;;;14.79;78.32;101845.50;4997456;28;20563;-87
2023/06/07 05:22:39;;;;;;;17.90;6.13;;;;;;;14.88;77.66;101846.94;5014186;28;20036;-88
2023/06/07 05:25:06;;;;;;;14.82;5.75;;;;;;;14.94;77.52;101847.09;5013839;28;20038;-88
2023/06/07 05:27:32;;;;;;;15.98;6.20;;;;;;;15.07;77.18;101847.00;5014854;28;20034;-88
2023/06/07 05:29:58;;;;;;;10.63;4.90;;;;;;;15.12;76.97;101849.06;5014808;28;20557;-88
2023/06/07 05:32:25;;;;;;;12.10;5.87;;;;;;;15.17;76.73;101852.00;5013381;28;20362;-88
2023/06/07 05:34:52;;;;;;;17.30;6.30;;;;;;;15.17;76.61;101836.41;4997567;28;20291;-88
2023/06/07 05:37:18;;;;;;;10.10;5.57;;;;;;;15.31;76.45;101850.84;4981283;28;20436;-88
2023/06/07 05:39:45;;;;;;;11.65;5.50;;;;;;;15.29;75.65;101839.28;5013321;28;20034;-88
2023/06/07 05:42:11;;;;;;;14.05;6.00;;;;;;;15.39;75.64;101852.44;5013652;28;20088;-88
2023/06/07 05:44:39;;;;;;;12.30;5.97;;;;;;;15.46;75.44;101853.25;5014954;28;20030;-88
2023/06/07 05:47:05;;;;;;;20.10;6.00;;;;;;;15.48;75.17;101859.31;4998254;28;20753;-88
2023/06/07 05:49:30;;;;;;;12.15;6.25;;;;;;;15.43;74.84;101854.50;4997509;28;20137;-88
2023/06/07 05:51:55;;;;;;;13.47;6.07;;;;;;;15.48;74.83;101853.00;5014055;28;20041;-88
2023/06/07 05:54:21;;;;;;;13.60;5.53;;;;;;;15.48;75.05;101855.75;4994578;28;20482;-88
2023/06/07 05:56:49;;;;;;;11.85;6.20;;;;;;;15.52;75.20;101857.81;4977450;28;20108;-86
2023/06/07 05:59:17;;;;;;;12.83;6.00;;;;;;;15.59;75.78;101861.31;4995157;28;20088;-95
2023/06/07 06:01:44;;;;;;;14.18;6.25;;;;;;;15.58;75.27;101858.81;5004791;28;20049;-90
2023/06/07 06:04:10;;;;;;;12.68;6.18;;;;;;;15.51;74.98;101858.84;4982705;28;20061;-89
2023/06/07 06:06:38;;;;;;;11.93;5.90;;;;;;;15.48;74.63;101853.00;4993201;28;20030;-93
2023/06/07 06:09:04;;;;;;;14.17;6.13;;;;;;;15.50;74.82;101857.22;4993813;28;20352;-89
2023/06/07 06:11:32;;;;;;;16.40;6.20;;;;;;;15.53;74.02;101851.28;4995140;28;20030;-89
2023/06/07 06:14:00;;;;;;;15.77;6.30;;;;;;;15.61;74.59;101850.97;4992700;28;20112;-90
2023/06/07 06:16:25;;;;;;;11.43;5.60;;;;;;;15.73;74.22;101869.41;4993167;28;20442;-89
2023/06/07 06:18:53;;;;;;;17.00;6.10;;;;;;;15.74;73.43;101863.69;4992986;28;20026;-88
2023/06/07 06:21:18;;;;;;;15.95;6.20;;;;;;;15.89;72.72;101866.13;4993084;28;20031;-89
2023/06/07 06:23:44;;;;;;;19.17;5.87;;;;;;;16.03;72.20;101860.50;4992593;28;20030;-89
2023/06/07 06:26:09;;;;;;;11.82;5.70;;;;;;;16.14;71.53;101865.22;4993052;28;20036;-89
2023/06/07 06:28:35;;;;;;;15.37;5.47;;;;;;;16.18;71.34;101855.50;4994130;28;20030;-89
2023/06/07 06:31:01;;;;;;;12.87;5.77;;;;;;;16.37;71.54;101867.28;4992827;28;20477;-89
2023/06/07 06:33:27;;;;;;;11.52;5.50;;;;;;;16.53;70.72;101864.97;4993969;28;20423;-90
2023/06/07 06:35:53;;;;;;;12.10;5.83;;;;;;;16.64;69.18;101886.13;4992874;28;20100;-87
2023/06/07 06:38:23;;;;;;;18.33;6.23;;;;;;;16.74;68.89;101871.84;4993931;28;20292;-88
2023/06/07 06:40:48;;;;;;;14.65;5.45;;;;;;;16.91;67.74;101872.06;4992641;28;20109;-90
2023/06/07 06:43:14;;;;;;;14.60;5.67;;;;;;;17.05;67.06;101870.81;4992305;28;20072;-90
2023/06/07 06:45:46;;;;;;;13.45;5.00;;;;;;;17.10;66.43;101872.84;4992693;28;20023;-90
2023/06/07 06:48:12;;;;;;;14.30;5.60;;;;;;;17.22;66.34;101881.13;4994251;28;20031;-89
2023/06/07 06:50:40;;;;;;;15.10;5.80;;;;;;;17.26;65.94;101880.41;4992591;28;20512;-89
2023/06/07 06:53:08;;;;;;;10.43;5.18;;;;;;;17.27;66.10;101873.00;4992821;28;20117;-90
2023/06/07 06:55:33;;;;;;;16.97;5.53;;;;;;;17.37;65.94;101886.97;4977622;28;20085;-89
2023/06/07 06:57:59;;;;;;;15.45;6.10;;;;;;;17.43;65.49;101879.72;4998107;28;20038;-90
2023/06/07 07:00:27;;;;;;;15.60;5.70;;;;;;;17.54;64.83;101885.22;4998251;28;20042;-90
2023/06/07 07:02:52;;;;;;;12.48;5.85;;;;;;;17.68;65.33;101880.31;4997769;28;20475;-89
2023/06/07 07:05:18;;;;;;;11.17;5.60;;;;;;;17.84;64.15;101891.69;4996955;28;20061;-90
2023/06/07 07:07:43;;;;;;;18.70;6.00;;;;;;;17.90;63.57;101889.91;4998103;28;20046;-89
2023/06/07 07:10:12;;;;;;;11.73;5.60;;;;;;;18.15;63.73;101901.47;4997007;28;20034;-89
2023/06/07 07:12:41;;;;;;;14.52;6.53;;;;;;;18.27;63.17;101908.88;4980786;28;20039;-89
2023/06/07 07:15:07;;;;;;;10.68;5.93;;;;;;;18.42;62.20;101903.69;4980747;28;20038;-89
2023/06/07 07:17:40;;;;;;;12.77;6.17;;;;;;;18.44;61.02;101904.28;4998153;28;20034;-89
2023/06/07 07:20:05;;;;;;;12.85;6.20;;;;;;;18.61;60.27;101900.78;4996326;28;20026;-89
2023/06/07 07:22:34;;;;;;;14.00;5.88;;;;;;;18.78;59.90;101898.94;4997854;28;20085;-92
2023/06/07 07:24:59;;;;;;;11.65;5.47;;;;;;;18.97;59.12;101907.84;5005767;28;20080;-93
2023/06/07 07:27:25;;;;;;;11.13;5.77;;;;;;;18.96;58.49;101897.09;4999064;28;20030;-90
2023/06/07 07:29:51;;;;;;;16.10;6.23;;;;;;;19.10;58.32;101906.69;5016403;28;20391;-92
2023/06/07 07:32:16;;;;;;;13.43;5.47;;;;;;;19.12;57.83;101904.56;4999687;28;20549;-91
2023/06/07 07:34:42;;;;;;;14.87;6.30;;;;;;;19.12;57.89;101904.56;4998791;28;20034;-91
2023/06/07 07:37:07;;;;;;;12.87;6.03;;;;;;;19.20;57.09;101909.63;4999690;28;20038;-92
2023/06/07 07:39:32;;;;;;;14.23;5.67;;;;;;;19.41;57.45;101910.00;5000241;28;20749;-95
2023/06/07 07:41:59;;;;;;;10.70;5.97;;;;;;;19.54;56.41;101893.16;5016967;28;20034;-92
2023/06/07 07:44:25;;;;;;;17.55;6.18;;;;;;;19.61;56.34;101901.25;4999582;28;20069;-91
2023/06/07 07:46:50;;;;;;;10.07;5.80;;;;;;;19.78;56.70;101907.63;5015742;28;20382;-89
2023/06/07 07:49:15;;;;;;;11.40;5.83;;;;;;;19.79;55.95;101903.75;5015456;28;20038;-88
2023/06/07 07:51:41;;;;;;;14.47;5.97;;;;;;;19.78;55.75;101912.28;5016051;28;20041;-89
2023/06/07 07:54:08;;;;;;;12.80;5.55;;;;;;;19.89;56.20;101908.59;5015653;28;20037;-90
2023/06/07 07:56:33;;;;;;;17.70;5.77;;;;;;;19.92;55.20;101899.81;4999211;28;20129;-89
2023/06/07 07:58:58;;;;;;;14.65;6.13;;;;;;;20.03;55.13;101922.00;5015553;28;20057;-89
2023/06/07 08:01:24;;;;;;;14.37;5.80;;;;;;;20.03;54.85;101913.75;5015717;28;20041;-87
2023/06/07 08:03:50;;;;;;;10.83;5.77;;;;;;;20.11;54.86;101921.59;5014597;28;20096;-89
2023/06/07 08:06:16;;;;;;;11.13;5.50;;;;;;;20.27;54.30;101915.19;5014286;28;20034;-89
2023/06/07 08:08:41;;;;;;;19.30;5.67;;;;;;;20.46;53.40;101918.47;5015451;28;20394;-89
2023/06/07 08:11:07;;;;;;;20.17;6.93;;;;;;;20.74;52.79;101907.53;4998908;28;20029;-89
2023/06/07 08:13:32;;;;;;;11.13;5.50;;;;;;;20.92;51.69;101907.19;5015020;28;20359;-88
2023/06/07 08:15:58;;;;;;;9.00;5.40;;;;;;;21.10;51.59;101922.53;5014857;28;20053;-87
2023/06/07 08:18:23;;;;;;;12.33;5.53;;;;;;;21.22;51.04;101908.59;4998875;28;20091;-88
2023/06/07 08:20:48;;;;;;;12.73;5.47;;;;;;;21.42;50.48;101902.44;5014904;28;20101;-88
2023/06/07 08:23:14;;;;;;;10.70;5.70;;;;;;;21.55;50.40;101904.78;5014887;28;20041;-88
2023/06/07 08:25:40;;;;;;;10.60;5.60;;;;;;;21.55;49.79;101907.53;4998744;28;20034;-88
2023/06/07 08:28:06;;;;;;;12.27;6.22;;;;;;;21.56;49.83;101905.59;4982504;28;20121;-88
2023/06/07 08:30:31;;;;;;;10.50;6.00;;;;;;;21.59;49.87;101907.81;4998484;28;20115;-88
2023/06/07 08:32:57;;;;;;;11.70;6.10;;;;;;;21.45;50.24;101904.66;5015890;28;20026;-88
2023/06/07 08:35:22;;;;;;;12.13;6.17;;;;;;;21.31;51.05;101904.25;5014846;28;20765;-88
2023/06/07 08:37:48;;;;;;;12.33;6.43;;;;;;;21.25;51.44;101901.72;4999593;28;20120;-88
2023/06/07 08:40:18;;;;;;;15.63;6.47;;;;;;;21.20;51.57;101908.84;4998092;28;20569;-88
2023/06/07 08:42:43;;;;;;;19.38;6.38;;;;;;;21.20;51.95;101895.06;5014615;28;20589;-87
2023/06/07 08:45:18;;;;;;;17.83;6.38;;;;;;;21.30;51.43;101894.28;5014682;28;20112;-88
2023/06/07 08:47:44;;;;;;;12.10;6.38;;;;;;;21.27;51.37;101894.81;5015745;28;20030;-89
2023/06/07 08:50:13;;;;;;;13.87;6.17;;;;;;;21.22;50.85;101905.00;4997991;28;20038;-88
2023/06/07 08:52:40;;;;;;;10.75;6.10;;;;;;;21.13;51.02;101894.44;5015792;28;20474;-88
2023/06/07 08:55:11;;;;;;;11.98;5.93;;;;;;;21.19;51.16;101909.09;4998144;28;20058;-88
2023/06/07 08:57:37;;;;;;;14.18;6.22;;;;;;;21.18;51.62;101897.22;5014643;28;20493;-88
2023/06/07 09:00:06;;;;;;;15.10;6.57;;;;;;;21.29;51.73;101894.56;5014207;28;20029;-88
2023/06/07 09:02:32;;;;;;;20.83;6.57;;;;;;;21.27;51.12;101899.50;5013788;28;20313;-89
2023/06/07 09:05:05;;;;;;;15.05;6.57;;;;;;;21.24;51.85;101886.25;5001059;28;20054;-92
2023/06/07 09:07:35;;;;;;;13.38;6.25;;;;;;;21.29;51.75;101886.28;4995058;28;20038;-90
2023/06/07 09:10:01;;;;;;;13.30;5.88;;;;;;;21.28;51.67;101899.25;4995836;28;20034;-89
2023/06/07 09:12:26;;;;;;;14.83;5.90;;;;;;;21.34;51.62;101900.13;4994391;28;20379;-90
2023/06/07 09:14:54;;;;;;;13.13;5.75;;;;;;;21.40;51.34;101890.78;4994463;28;20031;-90
2023/06/07 09:17:22;;;;;;;11.17;5.97;;;;;;;21.59;50.95;101902.31;4994474;28;20371;-89
2023/06/07 09:19:50;;;;;;;18.80;6.30;;;;;;;21.75;50.09;101899.63;4994162;28;20038;-90
2023/06/07 09:22:23;;;;;;;14.57;6.22;;;;;;;21.97;49.84;101891.22;4978554;28;20034;-89
2023/06/07 09:24:49;;;;;;;14.90;6.60;;;;;;;22.25;48.86;101899.13;4994323;28;20081;-89
2023/06/07 09:27:29;;;;;;;13.60;6.85;;;;;;;22.57;49.19;101897.34;4993903;28;20533;-90
2023/06/07 09:30:04;;;;;;;10.90;6.17;;;;;;;22.97;47.89;101901.31;4995695;28;20104;-90
2023/06/07 09:32:36;;;;;;;11.63;5.93;;;;;;;23.34;46.02;101897.56;4995157;28;20022;-92
2023/06/07 09:35:16;;;;;;;14.52;6.82;;;;;;;23.56;45.47;101905.56;4978121;28;20041;-90
2023/06/07 09:37:43;;;;;;;17.48;5.70;;;;;;;23.83;45.17;101909.97;4993614;28;20086;-90
2023/06/07 09:40:11;;;;;;;12.30;5.72;;;;;;;24.03;44.48;101894.44;4995116;28;20060;-90
2023/06/07 09:42:37;;;;;;;9.97;5.33;;;;;;;24.21;43.99;101885.50;4993850;28;20038;-89
2023/06/07 09:45:17;;;;;;;13.13;5.85;;;;;;;24.40;44.04;101898.75;4993714;28;20038;-90
2023/06/07 09:47:45;;;;;;;10.85;5.10;;;;;;;24.65;42.76;101895.88;4993641;28;20086;-90
2023/06/07 09:50:23;;;;;;;15.60;5.72;;;;;;;25.14;42.46;101885.88;4993944;28;20042;-90
2023/06/07 09:52:57;;;;;;;13.27;6.23;;;;;;;25.38;41.30;101885.97;4962765;28;20031;-90
2023/06/07 09:55:28;;;;;;;11.82;6.53;;;;;;;25.54;41.16;101880.28;4994506;28;20395;-89
2023/06/07 09:57:55;;;;;;;11.88;5.82;;;;;;;25.58;40.35;101878.56;4993572;28;20042;-89
2023/06/07 10:00:23;;;;;;;18.30;6.60;;;;;;;25.89;39.78;101881.03;4993318;28;20038;-89
2023/06/07 10:02:52;;;;;;;12.18;5.57;;;;;;;26.11;39.28;101885.28;4992770;28;20032;-89
2023/06/07 10:05:21;;;;;;;12.83;5.80;;;;;;;26.50;39.00;101890.66;4994818;28;20446;-89
2023/06/07 10:07:50;;;;;;;14.95;6.57;;;;;;;26.67;38.61;101886.53;4961381;28;20030;-89
2023/06/07 10:10:18;;;;;;;18.38;5.68;;;;;;;26.77;38.55;101890.00;4977045;28;20112;-89
2023/06/07 10:12:48;;;;;;;13.18;6.00;;;;;;;26.73;38.32;101897.28;4963550;28;20061;-89
2023/06/07 10:15:25;;;;;;;14.70;5.97;;;;;;;26.92;38.45;101885.34;4977157;28;20028;-89
2023/06/07 10:18:21;;;;;;;13.50;5.90;;;;;;;27.17;38.81;101880.53;4994660;28;20038;-89
2023/06/07 10:21:00;;;;;;;17.27;6.20;;;;;;;27.34;37.77;101877.19;4977237;28;20082;-90
2023/06/07 10:23:47;;;;;;;13.63;6.22;;;;;;;27.24;38.16;101879.00;4994468;28;20041;-89
2023/06/07 10:26:36;;;;;;;10.57;6.30;;;;;;;27.31;38.33;101873.00;4977484;28;20034;-90
2023/06/07 10:29:10;;;;;;;14.52;6.13;;;;;;;27.37;37.11;101876.56;4977157;28;20049;-90
2023/06/07 10:31:45;;;;;;;12.80;6.07;;;;;;;27.39;36.80;101886.28;4993858;28;20031;-90
2023/06/07 10:34:13;;;;;;;12.25;6.18;;;;;;;27.57;36.30;101886.56;4976280;28;20032;-90
2023/06/07 10:36:39;;;;;;;13.15;6.47;;;;;;;27.38;36.24;101878.25;4976905;28;20030;-90
2023/06/07 10:39:11;;;;;;;17.23;6.75;;;;;;;27.45;36.60;101881.47;4994061;28;20113;-89
2023/06/07 10:41:44;;;;;;;15.40;6.38;;;;;;;27.36;36.41;101884.13;4994301;28;20073;-89
2023/06/07 10:44:15;;;;;;;13.83;6.83;;;;;;;27.41;36.50;101875.66;4994413;28;20038;-90
2023/06/07 10:46:43;;;;;;;12.38;6.85;;;;;;;27.26;36.77;101878.69;4976743;28;20116;-90
2023/06/07 10:49:37;;;;;;;15.32;6.78;;;;;;;27.34;37.69;101885.53;4976763;28;20375;-90
2023/06/07 10:52:07;;;;;;;11.43;6.47;;;;;;;27.29;37.34;101864.16;4994349;28;20027;-90
2023/06/07 10:54:35;;;;;;;11.25;6.20;;;;;;;27.34;37.39;101875.22;4977027;28;20488;-90
2023/06/07 10:57:02;;;;;;;14.67;6.57;;;;;;;26.88;37.25;101876.75;4976801;28;20030;-90
2023/06/07 10:59:30;;;;;;;16.08;6.85;;;;;;;26.88;37.58;101870.38;4978139;28;20030;-90
2023/06/07 11:02:22;;;;;;;13.25;6.30;;;;;;;26.90;38.50;101887.59;4994441;28;20034;-89
2023/06/07 11:04:48;;;;;;;14.27;7.07;;;;;;;26.72;37.45;101878.13;4993064;28;20050;-90
2023/06/07 11:07:32;;;;;;;13.23;6.67;;;;;;;26.54;37.95;101874.97;4976575;28;20042;-92
2023/06/07 11:10:07;;;;;;;13.05;6.70;;;;;;;26.64;38.39;101865.69;4994155;28;20116;-92
2023/06/07 11:12:35;;;;;;;12.77;6.37;;;;;;;26.58;38.59;101880.78;4976642;28;20394;-92
2023/06/07 11:15:30;;;;;;;25.60;7.80;;;;;;;26.36;38.90;101876.63;4976715;28;20038;-92
2023/06/07 11:17:58;;;;;;;12.13;6.65;;;;;;;25.78;39.25;101868.38;4961149;28;20040;-91
2023/06/07 11:20:36;;;;;;;12.57;6.60;;;;;;;25.78;40.24;101871.13;4976513;28;20053;-92